createdAt,value
2019-05-01T00:02:34.216Z,9.60
2019-05-01T00:05:38.993Z,8.47
2019-05-01T00:08:40.993Z,9.13
2019-05-01T00:11:43.081Z,8.40
2019-05-01T00:14:45.005Z,8.57
2019-05-01T00:17:46.948Z,9.10
2019-05-01T00:20:49.025Z,8.60
2019-05-01T00:23:50.952Z,7.63
2019-05-01T00:26:52.923Z,7.83
2019-05-01T00:29:54.841Z,8.47
2019-05-01T00:32:56.824Z,9.53
2019-05-01T00:35:58.807Z,8.40
2019-05-01T00:39:01.294Z,8.93
2019-05-01T00:42:05.032Z,9.03
2019-05-01T00:45:07.672Z,8.60
2019-05-01T00:48:10.965Z,8.67
2019-05-01T00:51:12.883Z,8.90
2019-05-01T00:54:14.884Z,9.20
2019-05-01T00:57:27.733Z,8.80
2019-05-01T01:00:47.871Z,9.57
2019-05-01T01:03:50.116Z,9.40
2019-05-01T01:06:52.180Z,9.20
2019-05-01T01:09:54.171Z,11.30
2019-05-01T01:12:56.288Z,9.80
2019-05-01T01:15:58.223Z,9.07
2019-05-01T01:19:00.148Z,9.07
2019-05-01T01:22:02.117Z,9.43
2019-05-01T01:25:05.389Z,8.53
2019-05-01T01:28:07.409Z,8.57
2019-05-01T01:31:09.344Z,9.13
2019-05-01T01:34:11.311Z,9.40
2019-05-01T01:37:13.368Z,10.37
2019-05-01T01:40:15.270Z,10.40
2019-05-01T01:43:36.040Z,11.30
2019-05-01T01:46:40.219Z,10.33
2019-05-01T01:49:42.309Z,11.03
2019-05-01T01:52:44.248Z,9.73
2019-05-01T01:55:47.945Z,10.87
2019-05-01T01:58:51.254Z,11.27
2019-05-01T02:01:55.233Z,10.90
2019-05-01T02:05:04.792Z,9.70
2019-05-01T02:08:08.938Z,11.50
2019-05-01T02:11:11.096Z,12.20
2019-05-01T02:14:13.583Z,12.27
2019-05-01T02:17:15.527Z,11.40
2019-05-01T02:20:19.516Z,12.80
2019-05-01T02:23:21.435Z,12.70
2019-05-01T02:26:26.585Z,12.23
2019-05-01T02:29:37.404Z,12.33
2019-05-01T02:32:39.834Z,13.50
2019-05-01T02:35:42.854Z,14.30
2019-05-01T02:38:46.812Z,13.90
2019-05-01T02:41:51.631Z,13.33
2019-05-01T02:44:57.520Z,14.13
2019-05-01T02:48:00.119Z,13.30
2019-05-01T02:51:04.272Z,14.87
2019-05-01T02:54:07.781Z,14.83
2019-05-01T02:57:12.988Z,14.27
2019-05-01T03:00:17.095Z,12.37
2019-05-01T03:03:19.048Z,13.80
2019-05-01T03:06:21.037Z,13.57
2019-05-01T03:09:23.320Z,13.87
2019-05-01T03:12:28.880Z,13.00
2019-05-01T03:15:34.477Z,14.03
2019-05-01T03:18:44.512Z,13.57
2019-05-01T03:21:48.236Z,13.67
2019-05-01T03:24:50.905Z,14.33
2019-05-01T03:27:52.976Z,14.73
2019-05-01T03:30:55.396Z,13.90
2019-05-01T03:33:58.587Z,13.83
2019-05-01T03:37:03.694Z,13.50
2019-05-01T03:40:05.856Z,13.03
2019-05-01T03:43:07.784Z,13.37
2019-05-01T03:46:10.037Z,13.47
2019-05-01T03:49:12.206Z,13.00
2019-05-01T03:52:14.402Z,12.03
2019-05-01T03:55:16.529Z,11.60
2019-05-01T03:58:18.552Z,11.77
2019-05-01T04:01:25.183Z,11.87
2019-05-01T04:04:30.920Z,11.67
2019-05-01T04:07:36.205Z,11.53
2019-05-01T04:10:37.317Z,12.00
2019-05-01T04:13:39.296Z,11.77
2019-05-01T04:16:43.301Z,11.40
2019-05-01T04:19:45.356Z,11.30
2019-05-01T04:22:47.797Z,11.87
2019-05-01T04:25:50.235Z,11.43
2019-05-01T04:28:54.994Z,11.87
2019-05-01T04:31:59.323Z,12.90
2019-05-01T04:39:06.996Z,11.70
2019-05-01T04:42:09.081Z,12.03
2019-05-01T04:45:11.073Z,13.23
2019-05-01T04:48:13.434Z,13.27
2019-05-01T04:51:15.471Z,14.07
2019-05-01T04:54:17.586Z,12.13
2019-05-01T04:57:19.635Z,10.77
2019-05-01T05:00:21.733Z,11.30
2019-05-01T05:03:25.477Z,11.07
2019-05-01T05:06:27.630Z,11.60
2019-05-01T05:09:38.086Z,10.57
2019-05-01T05:12:51.877Z,11.67
2019-05-01T05:15:55.584Z,9.90
2019-05-01T05:18:57.781Z,11.13
2019-05-01T05:21:59.778Z,11.00
2019-05-01T05:25:01.716Z,11.83
2019-05-01T05:28:03.669Z,10.77
2019-05-01T05:31:09.225Z,11.07
2019-05-01T05:34:13.467Z,9.67
2019-05-01T05:37:20.325Z,10.97
2019-05-01T05:40:24.355Z,11.17
2019-05-01T05:43:26.588Z,10.77
2019-05-01T05:46:28.865Z,11.53
2019-05-01T05:49:31.682Z,10.83
2019-05-01T05:52:43.982Z,10.23
2019-05-01T05:55:49.624Z,12.10
2019-05-01T05:59:14.461Z,10.67
2019-05-01T06:02:21.848Z,9.70
2019-05-01T06:05:32.423Z,10.00
2019-05-01T06:08:38.030Z,9.80
2019-05-01T06:11:58.841Z,9.13
2019-05-01T06:15:21.087Z,9.15
2019-05-01T06:18:34.755Z,8.77
2019-05-01T06:21:40.514Z,10.63
2019-05-01T06:24:49.679Z,8.23
2019-05-01T06:27:51.637Z,8.80
2019-05-01T06:30:55.384Z,9.28
2019-05-01T06:33:57.419Z,9.28
2019-05-01T06:36:59.405Z,8.28
2019-05-01T06:40:03.138Z,8.28
2019-05-01T06:43:09.623Z,7.83
2019-05-01T06:46:13.541Z,7.70
2019-05-01T06:49:24.219Z,7.45
2019-05-01T06:52:29.369Z,7.35
2019-05-01T06:55:30.720Z,8.05
2019-05-01T06:58:32.947Z,8.63
2019-05-01T07:01:39.858Z,8.45
2019-05-01T07:04:46.058Z,9.48
2019-05-01T07:07:53.246Z,8.53
2019-05-01T07:10:52.666Z,9.33
2019-05-01T07:13:55.930Z,9.85
2019-05-01T07:16:58.066Z,9.28
2019-05-01T07:20:19.517Z,9.05
2019-05-01T07:23:21.566Z,9.50
2019-05-01T07:26:23.551Z,9.63
2019-05-01T07:29:27.490Z,9.67
2019-05-01T07:32:29.630Z,11.00
2019-05-01T07:35:33.025Z,8.77
2019-05-01T07:38:38.460Z,7.23
2019-05-01T07:41:40.795Z,6.63
2019-05-01T07:44:44.669Z,7.73
2019-05-01T07:47:51.384Z,8.90
2019-05-01T07:50:53.452Z,8.60
2019-05-01T07:53:59.097Z,6.93
2019-05-01T07:57:03.240Z,6.27
2019-05-01T08:00:09.456Z,5.97
2019-05-01T08:03:11.433Z,6.93
2019-05-01T08:06:16.132Z,7.53
2019-05-01T08:09:17.289Z,10.73
2019-05-01T08:12:24.090Z,9.67
2019-05-01T08:15:27.628Z,9.20
2019-05-01T08:18:36.250Z,9.20
2019-05-01T08:21:40.190Z,9.27
2019-05-01T08:24:44.147Z,6.07
2019-05-01T08:27:55.596Z,7.53
2019-05-01T08:30:59.308Z,8.13
2019-05-01T08:34:03.001Z,7.80
2019-05-01T08:37:06.522Z,7.93
2019-05-01T08:40:09.361Z,9.37
2019-05-01T08:43:13.664Z,9.80
2019-05-01T08:46:33.771Z,8.53
2019-05-01T08:49:42.212Z,7.30
2019-05-01T08:52:42.729Z,6.97
2019-05-01T08:55:47.030Z,6.57
2019-05-01T08:58:50.517Z,7.53
2019-05-01T09:02:08.559Z,7.50
2019-05-01T09:05:02.366Z,7.47
2019-05-01T09:08:00.814Z,8.80
2019-05-01T09:11:02.814Z,8.77
2019-05-01T09:14:04.853Z,9.77
2019-05-01T09:17:06.903Z,11.03
2019-05-01T09:20:10.236Z,13.93
2019-05-01T09:23:14.346Z,13.90
2019-05-01T09:26:18.153Z,11.13
2019-05-01T09:29:38.706Z,16.80
2019-05-01T09:32:40.913Z,13.97
2019-05-01T09:35:45.436Z,16.60
2019-05-01T09:38:49.888Z,12.83
2019-05-01T09:41:50.816Z,12.30
2019-05-01T09:44:52.785Z,12.73
2019-05-01T09:47:54.826Z,12.80
2019-05-01T09:51:00.916Z,12.80
2019-05-01T09:54:13.519Z,11.03
2019-05-01T09:57:15.471Z,12.27
2019-05-01T10:00:19.707Z,9.03
2019-05-01T10:03:21.707Z,11.97
2019-05-01T10:06:23.633Z,13.67
2019-05-01T10:09:26.894Z,15.03
2019-05-01T10:12:29.314Z,15.03
2019-05-01T10:15:31.528Z,5.93
2019-05-01T10:18:33.884Z,5.87
2019-05-01T10:21:36.020Z,7.37
2019-05-01T10:24:39.376Z,13.73
2019-05-01T10:27:43.323Z,15.17
2019-05-01T10:30:59.039Z,8.97
2019-05-01T10:34:19.441Z,8.23
2019-05-01T10:37:23.637Z,12.30
2019-05-01T10:40:26.955Z,16.73
2019-05-01T10:43:29.347Z,16.63
2019-05-01T10:46:31.395Z,11.17
2019-05-01T10:49:33.344Z,11.00
2019-05-01T10:52:35.883Z,13.67
2019-05-01T10:55:37.822Z,13.13
2019-05-01T10:58:39.868Z,16.83
2019-05-01T11:01:46.393Z,16.80
2019-05-01T11:04:48.435Z,17.50
2019-05-01T11:07:50.595Z,16.67
2019-05-01T11:10:52.553Z,18.57
2019-05-01T11:13:54.580Z,19.70
2019-05-01T11:16:56.648Z,20.00
2019-05-01T11:19:59.593Z,17.17
2019-05-01T11:23:01.720Z,16.60
2019-05-01T11:26:03.673Z,15.90
2019-05-01T11:29:05.811Z,15.90
2019-05-01T11:32:26.306Z,22.97
2019-05-01T11:35:45.525Z,18.57
2019-05-01T11:38:49.400Z,16.17
2019-05-01T11:41:59.480Z,19.03
2019-05-01T11:45:01.469Z,19.43
2019-05-01T11:48:03.408Z,18.57
2019-05-01T11:51:05.430Z,18.80
2019-05-01T11:54:07.431Z,22.50
2019-05-01T11:57:09.441Z,24.93
2019-05-01T12:00:13.900Z,27.03
2019-05-01T12:03:15.917Z,30.33
2019-05-01T12:06:23.095Z,26.50
2019-05-01T12:09:21.812Z,29.47
2019-05-01T12:12:25.618Z,27.17
2019-05-01T12:15:27.601Z,28.10
2019-05-01T12:18:29.605Z,29.47
2019-05-01T12:21:31.600Z,30.13
2019-05-01T12:24:33.757Z,28.87
2019-05-01T12:27:35.713Z,29.40
2019-05-01T12:30:37.751Z,31.20
2019-05-01T12:33:39.710Z,30.83
2019-05-01T12:36:43.014Z,29.80
2019-05-01T12:39:45.467Z,28.20
2019-05-01T12:42:47.518Z,27.83
2019-05-01T12:45:51.293Z,27.23
2019-05-01T12:48:53.287Z,28.10
2019-05-01T12:52:09.903Z,26.60
2019-05-01T12:55:03.043Z,26.67
2019-05-01T12:58:05.007Z,26.73
2019-05-01T13:01:07.160Z,27.13
2019-05-01T13:04:09.134Z,28.70
2019-05-01T13:07:12.711Z,29.83
2019-05-01T13:10:15.073Z,28.60
2019-05-01T13:13:17.656Z,30.30
2019-05-01T13:16:19.706Z,27.67
2019-05-01T13:19:21.668Z,29.30
2019-05-01T13:22:23.596Z,28.17
2019-05-01T13:25:25.776Z,28.10
2019-05-01T13:28:41.407Z,28.30
2019-05-01T13:31:51.239Z,27.40
2019-05-01T13:34:53.202Z,27.70
2019-05-01T13:37:55.225Z,28.43
2019-05-01T13:40:57.236Z,32.07
2019-05-01T13:43:59.227Z,31.07
2019-05-01T13:47:01.158Z,32.00
2019-05-01T13:50:06.615Z,31.73
2019-05-01T13:53:08.603Z,32.63
2019-05-01T13:56:11.244Z,31.33
2019-05-01T13:59:15.010Z,32.67
2019-05-01T14:02:17.036Z,31.20
2019-05-01T14:05:19.399Z,32.83
2019-05-01T14:08:21.395Z,35.60
2019-05-01T14:11:23.368Z,37.13
2019-05-01T14:14:25.640Z,34.43
2019-05-01T14:17:27.597Z,36.27
2019-05-01T14:20:34.182Z,32.67
2019-05-01T14:23:50.370Z,28.80
2019-05-01T14:26:52.489Z,30.03
2019-05-01T14:29:54.469Z,29.83
2019-05-01T14:32:56.438Z,29.63
2019-05-01T14:35:58.357Z,31.57
2019-05-01T14:39:00.686Z,30.13
2019-05-01T14:42:02.641Z,31.27
2019-05-01T14:45:08.399Z,34.07
2019-05-01T14:48:10.302Z,34.63
2019-05-01T14:51:12.328Z,36.87
2019-05-01T14:54:14.262Z,36.53
2019-05-01T14:57:16.245Z,37.77
2019-05-01T15:00:19.107Z,30.93
2019-05-01T15:03:21.030Z,31.10
2019-05-01T15:06:22.990Z,30.67
2019-05-01T15:09:24.965Z,33.10
2019-05-01T15:12:26.899Z,35.10
2019-05-01T15:15:39.822Z,32.53
2019-05-01T15:18:46.360Z,33.07
2019-05-01T15:21:48.320Z,33.13
2019-05-01T15:24:50.305Z,33.70
2019-05-01T15:27:52.387Z,34.37
2019-05-01T15:30:54.302Z,31.63
2019-05-01T15:33:56.258Z,32.63
2019-05-01T15:36:58.258Z,34.07
2019-05-01T15:40:02.359Z,29.90
2019-05-01T15:43:06.125Z,29.43
2019-05-01T15:46:08.150Z,30.73
2019-05-01T15:49:10.127Z,32.30
2019-05-01T15:52:12.095Z,31.53
2019-05-01T15:55:14.148Z,33.40
2019-05-01T15:58:16.404Z,32.97
2019-05-01T16:01:18.329Z,34.47
2019-05-01T16:04:20.387Z,36.37
2019-05-01T16:07:22.308Z,35.47
2019-05-01T16:10:26.140Z,35.30
2019-05-01T16:13:28.060Z,32.70
2019-05-01T16:16:30.064Z,33.40
2019-05-01T16:19:32.024Z,33.87
2019-05-01T16:22:34.186Z,35.87
2019-05-01T16:25:37.519Z,34.43
2019-05-01T16:28:39.593Z,34.77
2019-05-01T16:31:41.544Z,34.13
2019-05-01T16:34:43.472Z,32.30
2019-05-01T16:37:45.503Z,47.53
2019-05-01T16:40:51.839Z,44.13
2019-05-01T16:43:53.776Z,48.97
2019-05-01T16:46:55.818Z,41.40
2019-05-01T16:49:57.798Z,60.87
2019-05-01T16:53:00.759Z,58.27
2019-05-01T16:56:02.791Z,35.87
2019-05-01T16:59:04.830Z,34.67
2019-05-01T17:02:14.528Z,38.37
2019-05-01T17:05:24.555Z,39.03
2019-05-01T17:08:36.527Z,36.77
2019-05-01T17:11:35.303Z,35.53
2019-05-01T17:14:39.925Z,34.77
2019-05-01T17:17:41.950Z,33.43
2019-05-01T17:20:43.914Z,34.23
2019-05-01T17:23:45.915Z,34.70
2019-05-01T17:26:47.846Z,33.30
2019-05-01T17:29:49.935Z,32.40
2019-05-01T17:32:51.937Z,32.90
2019-05-01T17:35:54.274Z,31.70
2019-05-01T17:38:58.089Z,34.53
2019-05-01T17:42:02.037Z,35.70
2019-05-01T17:45:07.122Z,31.87
2019-05-01T17:48:09.146Z,32.63
2019-05-01T17:51:12.969Z,33.63
2019-05-01T17:54:14.870Z,32.27
2019-05-01T17:57:16.802Z,33.47
2019-05-01T18:00:26.724Z,33.60
2019-05-01T18:03:47.028Z,34.63
2019-05-01T18:06:50.430Z,33.90
2019-05-01T18:09:55.692Z,36.57
2019-05-01T18:12:56.653Z,34.47
2019-05-01T18:16:00.293Z,35.37
2019-05-01T18:19:04.034Z,37.00
2019-05-01T18:22:10.913Z,36.03
2019-05-01T18:25:16.623Z,36.70
2019-05-01T18:28:38.874Z,35.80
2019-05-01T18:31:41.072Z,37.73
2019-05-01T18:34:43.553Z,35.97
2019-05-01T18:37:50.573Z,37.20
2019-05-01T18:40:54.743Z,36.73
2019-05-01T18:43:57.169Z,36.67
2019-05-01T18:47:01.253Z,36.37
2019-05-01T18:50:06.308Z,35.43
2019-05-01T18:53:11.506Z,35.53
2019-05-01T18:56:12.602Z,35.37
2019-05-01T18:59:16.065Z,34.07
2019-05-01T19:02:20.405Z,34.07
2019-05-01T19:05:22.929Z,32.87
2019-05-01T19:08:24.917Z,33.00
2019-05-01T19:11:27.006Z,33.57
2019-05-01T19:14:30.809Z,31.60
2019-05-01T19:17:32.988Z,31.70
2019-05-01T19:20:39.988Z,30.57
2019-05-01T19:23:45.237Z,30.83
2019-05-01T19:26:48.353Z,32.27
2019-05-01T19:29:50.622Z,31.93
2019-05-01T19:32:52.749Z,32.53
2019-05-01T19:36:08.052Z,31.80
2019-05-01T19:39:11.488Z,30.17
2019-05-01T19:42:11.255Z,30.80
2019-05-01T19:45:18.451Z,30.50
2019-05-01T19:48:20.713Z,30.60
2019-05-01T19:51:26.028Z,30.33
2019-05-01T19:54:30.066Z,31.33
2019-05-01T19:57:36.703Z,28.70
2019-05-01T20:00:51.263Z,29.47
2019-05-01T20:03:54.943Z,28.80
2019-05-01T20:06:57.975Z,29.93
2019-05-01T20:10:00.071Z,29.57
2019-05-01T20:13:02.403Z,28.80
2019-05-01T20:16:07.820Z,27.37
2019-05-01T20:19:10.482Z,26.67
2019-05-01T20:22:15.383Z,28.63
2019-05-01T20:25:19.493Z,29.90
2019-05-01T20:28:22.453Z,28.37
2019-05-01T20:31:30.684Z,27.17
2019-05-01T20:34:33.301Z,28.60
2019-05-01T20:37:35.226Z,27.40
2019-05-01T20:40:38.751Z,27.83
2019-05-01T20:43:43.615Z,28.50
2019-05-01T20:46:44.732Z,28.60
2019-05-01T20:49:46.969Z,29.50
2019-05-01T20:52:51.004Z,30.77
2019-05-01T20:55:57.910Z,27.33
2019-05-01T20:59:03.136Z,29.23
2019-05-01T21:02:08.041Z,28.83
2019-05-01T21:05:11.506Z,28.57
2019-05-01T21:08:18.033Z,28.07
2019-05-01T21:11:24.582Z,29.43
2019-05-01T21:14:26.527Z,29.50
2019-05-01T21:17:28.533Z,31.10
2019-05-01T21:20:30.530Z,29.20
2019-05-01T21:23:33.459Z,28.77
2019-05-01T21:26:35.596Z,28.47
2019-05-01T21:29:38.175Z,28.93
2019-05-01T21:32:40.263Z,28.67
2019-05-01T21:35:44.341Z,29.87
2019-05-01T21:38:46.152Z,30.17
2019-05-01T21:41:48.840Z,29.43
2019-05-01T21:44:50.727Z,29.47
2019-05-01T21:47:52.960Z,29.40
2019-05-01T21:50:58.067Z,30.27
2019-05-01T21:53:58.943Z,29.43
2019-05-01T21:57:00.912Z,29.30
2019-05-01T22:00:05.813Z,30.23
2019-05-01T22:03:09.634Z,29.40
2019-05-01T22:06:15.438Z,29.13
2019-05-01T22:09:21.444Z,31.20
2019-05-01T22:12:23.694Z,28.23
2019-05-01T22:15:36.831Z,28.50
2019-05-01T22:18:46.361Z,28.83
2019-05-01T22:22:06.753Z,30.87
2019-05-01T22:25:25.912Z,28.70
2019-05-01T22:28:32.581Z,28.73
2019-05-01T22:31:52.821Z,30.13
2019-05-01T22:34:57.074Z,28.03
2019-05-01T22:37:59.074Z,29.00
2019-05-01T22:41:11.666Z,28.07
2019-05-01T22:44:17.923Z,29.60
2019-05-01T22:47:17.476Z,28.33
2019-05-01T22:50:19.398Z,28.73
2019-05-01T22:53:21.327Z,28.70
2019-05-01T22:56:23.309Z,29.23
2019-05-01T22:59:25.271Z,28.70
2019-05-01T23:02:37.837Z,29.80
2019-05-01T23:05:39.757Z,29.17
2019-05-01T23:08:41.659Z,27.77
2019-05-01T23:11:45.424Z,28.53
2019-05-01T23:14:47.560Z,27.27
2019-05-01T23:17:50.298Z,27.83
2019-05-01T23:20:52.257Z,28.80
2019-05-01T23:23:56.935Z,26.73
2019-05-01T23:26:58.148Z,24.77
2019-05-01T23:30:00.636Z,26.70
2019-05-01T23:33:02.611Z,24.37
2019-05-01T23:36:04.664Z,25.17
2019-05-01T23:39:06.828Z,24.17
2019-05-01T23:42:08.783Z,22.10
2019-05-01T23:45:10.907Z,22.63
2019-05-01T23:48:12.872Z,21.43
2019-05-01T23:51:14.799Z,20.00
2019-05-01T23:54:16.745Z,20.37
2019-05-01T23:57:19.928Z,19.67
